sensor_id;sensor_type;location;lat;lon;timestamp;pressure;altitude;pressure_sealevel;temperature;humidity
65276;BME280;51875;49.994;14.052;2023-07-20T00:00:25;97854.41;;;17.95;74.41
65276;BME280;51875;49.994;14.052;2023-07-20T00:02:01;97859.25;;;17.88;73.21
65276;BME280;51875;49.994;14.052;2023-07-20T00:03:18;97867.72;;;17.80;72.89
65276;BME280;51875;49.994;14.052;2023-07-20T00:04:34;97862.78;;;17.88;72.49
65276;BME280;51875;49.994;14.052;2023-07-20T00:05:49;97862.63;;;17.77;72.94
65276;BME280;51875;49.994;14.052;2023-07-20T00:07:05;97865.25;;;17.64;74.54
65276;BME280;51875;49.994;14.052;2023-07-20T00:08:21;97866.63;;;17.70;73.66
65276;BME280;51875;49.994;14.052;2023-07-20T00:09:36;97867.94;;;17.77;73.60
65276;BME280;51875;49.994;14.052;2023-07-20T00:10:51;97866.19;;;17.63;75.04
65276;BME280;51875;49.994;14.052;2023-07-20T00:12:07;97867.06;;;17.63;74.73
65276;BME280;51875;49.994;14.052;2023-07-20T00:13:23;97858.97;;;17.52;75.40
65276;BME280;51875;49.994;14.052;2023-07-20T00:14:38;97864.41;;;17.63;74.70
65276;BME280;51875;49.994;14.052;2023-07-20T00:15:54;97870.81;;;17.46;75.96
65276;BME280;51875;49.994;14.052;2023-07-20T00:17:09;97869.53;;;17.39;77.11
65276;BME280;51875;49.994;14.052;2023-07-20T00:18:25;97872.25;;;17.38;77.31
65276;BME280;51875;49.994;14.052;2023-07-20T00:19:40;97874.03;;;17.37;76.57
65276;BME280;51875;49.994;14.052;2023-07-20T00:20:56;97875.97;;;17.20;77.26
65276;BME280;51875;49.994;14.052;2023-07-20T00:22:11;97872.13;;;17.12;77.58
65276;BME280;51875;49.994;14.052;2023-07-20T00:23:28;97875.94;;;17.07;78.00
65276;BME280;51875;49.994;14.052;2023-07-20T00:24:43;97875.31;;;17.17;78.12
65276;BME280;51875;49.994;14.052;2023-07-20T00:25:59;97878.53;;;17.22;77.54
65276;BME280;51875;49.994;14.052;2023-07-20T00:27:14;97871.34;;;17.24;78.11
65276;BME280;51875;49.994;14.052;2023-07-20T00:28:30;97864.56;;;17.20;78.56
65276;BME280;51875;49.994;14.052;2023-07-20T00:29:45;97867.91;;;17.36;77.86
65276;BME280;51875;49.994;14.052;2023-07-20T00:31:00;97874.00;;;17.24;78.57
65276;BME280;51875;49.994;14.052;2023-07-20T00:32:16;97875.16;;;17.20;80.26
65276;BME280;51875;49.994;14.052;2023-07-20T00:33:31;97869.91;;;17.05;82.10
65276;BME280;51875;49.994;14.052;2023-07-20T00:34:47;97866.59;;;17.29;80.34
65276;BME280;51875;49.994;14.052;2023-07-20T00:36:03;97870.00;;;17.04;82.73
65276;BME280;51875;49.994;14.052;2023-07-20T00:37:18;97874.94;;;17.23;82.62
65276;BME280;51875;49.994;14.052;2023-07-20T00:38:33;97882.50;;;17.15;84.00
65276;BME280;51875;49.994;14.052;2023-07-20T00:39:49;97890.75;;;16.95;87.97
65276;BME280;51875;49.994;14.052;2023-07-20T00:41:04;97895.84;;;16.99;88.86
65276;BME280;51875;49.994;14.052;2023-07-20T00:42:19;97891.44;;;16.99;90.40
65276;BME280;51875;49.994;14.052;2023-07-20T00:43:35;97890.28;;;17.03;91.00
65276;BME280;51875;49.994;14.052;2023-07-20T00:44:51;97884.16;;;17.03;92.52
65276;BME280;51875;49.994;14.052;2023-07-20T00:46:07;97885.06;;;17.16;87.49
65276;BME280;51875;49.994;14.052;2023-07-20T00:47:23;97881.28;;;17.20;87.59
65276;BME280;51875;49.994;14.052;2023-07-20T00:48:39;97892.19;;;17.01;91.91
65276;BME280;51875;49.994;14.052;2023-07-20T00:49:55;97885.66;;;16.78;93.75
65276;BME280;51875;49.994;14.052;2023-07-20T00:51:10;97883.28;;;16.88;93.50
65276;BME280;51875;49.994;14.052;2023-07-20T00:52:26;97876.78;;;16.93;93.60
65276;BME280;51875;49.994;14.052;2023-07-20T00:53:42;97882.06;;;16.93;93.99
65276;BME280;51875;49.994;14.052;2023-07-20T00:54:58;97891.41;;;16.85;95.83
65276;BME280;51875;49.994;14.052;2023-07-20T00:56:13;97890.75;;;16.81;94.82
65276;BME280;51875;49.994;14.052;2023-07-20T00:57:30;97889.25;;;16.77;95.18
65276;BME280;51875;49.994;14.052;2023-07-20T00:58:45;97886.22;;;16.83;94.11
65276;BME280;51875;49.994;14.052;2023-07-20T01:00:02;97893.31;;;16.83;94.05
65276;BME280;51875;49.994;14.052;2023-07-20T01:01:18;97889.06;;;16.80;94.59
65276;BME280;51875;49.994;14.052;2023-07-20T01:02:34;97894.34;;;16.80;94.48
65276;BME280;51875;49.994;14.052;2023-07-20T01:03:49;97893.59;;;16.78;93.56
65276;BME280;51875;49.994;14.052;2023-07-20T01:05:04;97898.81;;;16.79;94.02
65276;BME280;51875;49.994;14.052;2023-07-20T01:06:26;97895.00;;;16.84;93.24
65276;BME280;51875;49.994;14.052;2023-07-20T01:09:18;97892.38;;;16.84;91.98
65276;BME280;51875;49.994;14.052;2023-07-20T01:10:36;97891.69;;;16.80;92.45
65276;BME280;51875;49.994;14.052;2023-07-20T01:12:12;97892.63;;;16.93;90.54
65276;BME280;51875;49.994;14.052;2023-07-20T01:13:29;97896.03;;;16.81;92.42
65276;BME280;51875;49.994;14.052;2023-07-20T01:14:44;97896.22;;;16.92;92.24
65276;BME280;51875;49.994;14.052;2023-07-20T01:16:03;97898.13;;;16.90;92.85
65276;BME280;51875;49.994;14.052;2023-07-20T01:17:18;97894.44;;;16.93;92.97
65276;BME280;51875;49.994;14.052;2023-07-20T01:18:34;97901.22;;;16.97;92.36
65276;BME280;51875;49.994;14.052;2023-07-20T01:19:49;97895.22;;;16.66;94.56
65276;BME280;51875;49.994;14.052;2023-07-20T01:21:06;97896.72;;;16.85;93.24
65276;BME280;51875;49.994;14.052;2023-07-20T01:23:46;97889.63;;;16.85;93.09
65276;BME280;51875;49.994;14.052;2023-07-20T01:26:56;97893.97;;;17.15;92.08
65276;BME280;51875;49.994;14.052;2023-07-20T01:29:54;97894.91;;;17.42;88.85
65276;BME280;51875;49.994;14.052;2023-07-20T01:32:42;97898.59;;;17.12;90.71
65276;BME280;51875;49.994;14.052;2023-07-20T01:33:58;97897.72;;;16.97;91.32
65276;BME280;51875;49.994;14.052;2023-07-20T01:35:16;97902.38;;;16.93;90.68
65276;BME280;51875;49.994;14.052;2023-07-20T01:36:33;97896.34;;;17.05;90.38
65276;BME280;51875;49.994;14.052;2023-07-20T01:37:49;97906.94;;;16.76;93.34
65276;BME280;51875;49.994;14.052;2023-07-20T01:39:06;97912.31;;;16.75;94.32
65276;BME280;51875;49.994;14.052;2023-07-20T01:40:21;97907.22;;;17.01;93.08
65276;BME280;51875;49.994;14.052;2023-07-20T01:41:38;97901.22;;;17.12;93.38
65276;BME280;51875;49.994;14.052;2023-07-20T01:42:54;97895.44;;;17.19;93.38
65276;BME280;51875;49.994;14.052;2023-07-20T01:44:09;97893.56;;;17.21;92.04
65276;BME280;51875;49.994;14.052;2023-07-20T01:45:25;97895.53;;;17.18;93.66
65276;BME280;51875;49.994;14.052;2023-07-20T01:46:41;97898.69;;;17.10;94.01
65276;BME280;51875;49.994;14.052;2023-07-20T01:47:57;97897.28;;;17.04;98.74
65276;BME280;51875;49.994;14.052;2023-07-20T01:49:12;97899.75;;;17.07;98.71
65276;BME280;51875;49.994;14.052;2023-07-20T01:50:28;97900.09;;;16.87;100.00
65276;BME280;51875;49.994;14.052;2023-07-20T01:51:43;97901.31;;;16.95;100.00
65276;BME280;51875;49.994;14.052;2023-07-20T01:52:59;97897.59;;;17.00;100.00
65276;BME280;51875;49.994;14.052;2023-07-20T01:54:14;97900.28;;;17.13;100.00
65276;BME280;51875;49.994;14.052;2023-07-20T01:55:29;97902.28;;;17.09;100.00
65276;BME280;51875;49.994;14.052;2023-07-20T01:56:45;97901.31;;;16.95;100.00
65276;BME280;51875;49.994;14.052;2023-07-20T01:58:00;97902.47;;;16.77;100.00
65276;BME280;51875;49.994;14.052;2023-07-20T01:59:16;97898.06;;;16.77;100.00
65276;BME280;51875;49.994;14.052;2023-07-20T02:00:32;97897.00;;;16.80;100.00
65276;BME280;51875;49.994;14.052;2023-07-20T02:01:47;97900.31;;;16.84;100.00
65276;BME280;51875;49.994;14.052;2023-07-20T02:03:03;97892.66;;;16.79;100.00
65276;BME280;51875;49.994;14.052;2023-07-20T02:04:18;97898.41;;;16.86;100.00
65276;BME280;51875;49.994;14.052;2023-07-20T02:05:34;97898.88;;;16.92;100.00
65276;BME280;51875;49.994;14.052;2023-07-20T02:06:49;97903.34;;;17.06;100.00
65276;BME280;51875;49.994;14.052;2023-07-20T02:08:05;97899.38;;;16.99;100.00
65276;BME280;51875;49.994;14.052;2023-07-20T02:09:20;97896.16;;;16.79;100.00
65276;BME280;51875;49.994;14.052;2023-07-20T02:10:35;97904.94;;;16.65;100.00
65276;BME280;51875;49.994;14.052;2023-07-20T02:11:51;97898.69;;;16.52;100.00
65276;BME280;51875;49.994;14.052;2023-07-20T02:13:06;97899.28;;;16.57;100.00
65276;BME280;51875;49.994;14.052;2023-07-20T02:14:22;97901.25;;;16.54;100.00
65276;BME280;51875;49.994;14.052;2023-07-20T02:15:40;97889.66;;;16.56;100.00
65276;BME280;51875;49.994;14.052;2023-07-20T02:16:56;97892.94;;;16.60;100.00
65276;BME280;51875;49.994;14.052;2023-07-20T02:18:13;97894.06;;;16.70;100.00
65276;BME280;51875;49.994;14.052;2023-07-20T02:19:29;97890.66;;;16.97;100.00
65276;BME280;51875;49.994;14.052;2023-07-20T02:20:45;97893.38;;;16.95;100.00
65276;BME280;51875;49.994;14.052;2023-07-20T02:22:01;97901.16;;;16.84;100.00
65276;BME280;51875;49.994;14.052;2023-07-20T02:23:16;97898.41;;;16.86;100.00
65276;BME280;51875;49.994;14.052;2023-07-20T02:24:32;97894.75;;;16.74;100.00
65276;BME280;51875;49.994;14.052;2023-07-20T02:25:47;97902.56;;;16.75;100.00
65276;BME280;51875;49.994;14.052;2023-07-20T02:27:03;97898.69;;;16.66;100.00
65276;BME280;51875;49.994;14.052;2023-07-20T02:28:19;97902.56;;;16.75;100.00
65276;BME280;51875;49.994;14.052;2023-07-20T02:29:34;97906.34;;;16.71;100.00
65276;BME280;51875;49.994;14.052;2023-07-20T02:30:53;97914.56;;;16.52;100.00
65276;BME280;51875;49.994;14.052;2023-07-20T02:32:09;97911.72;;;16.41;100.00
65276;BME280;51875;49.994;14.052;2023-07-20T02:33:27;97905.13;;;16.48;100.00
65276;BME280;51875;49.994;14.052;2023-07-20T02:34:42;97908.44;;;16.37;100.00
65276;BME280;51875;49.994;14.052;2023-07-20T02:35:58;97909.94;;;16.41;100.00
65276;BME280;51875;49.994;14.052;2023-07-20T02:37:13;97904.09;;;16.50;100.00
65276;BME280;51875;49.994;14.052;2023-07-20T02:38:29;97910.47;;;16.46;100.00
65276;BME280;51875;49.994;14.052;2023-07-20T02:39:44;97910.13;;;16.38;100.00
65276;BME280;51875;49.994;14.052;2023-07-20T02:41:00;97914.34;;;16.41;100.00
65276;BME280;51875;49.994;14.052;2023-07-20T02:42:15;97913.03;;;16.33;100.00
65276;BME280;51875;49.994;14.052;2023-07-20T02:43:30;97912.00;;;16.36;100.00
65276;BME280;51875;49.994;14.052;2023-07-20T02:44:46;97905.66;;;16.38;100.00
65276;BME280;51875;49.994;14.052;2023-07-20T02:46:01;97916.97;;;16.26;100.00
65276;BME280;51875;49.994;14.052;2023-07-20T02:47:17;97918.09;;;16.22;100.00
65276;BME280;51875;49.994;14.052;2023-07-20T02:48:32;97910.56;;;16.16;100.00
65276;BME280;51875;49.994;14.052;2023-07-20T02:49:47;97915.38;;;16.23;100.00
65276;BME280;51875;49.994;14.052;2023-07-20T02:51:03;97922.34;;;16.10;100.00
65276;BME280;51875;49.994;14.052;2023-07-20T02:52:18;97917.53;;;16.17;100.00
65276;BME280;51875;49.994;14.052;2023-07-20T02:53:34;97915.66;;;16.19;100.00
65276;BME280;51875;49.994;14.052;2023-07-20T02:54:49;97919.53;;;16.28;100.00
65276;BME280;51875;49.994;14.052;2023-07-20T02:56:04;97918.78;;;16.26;100.00
65276;BME280;51875;49.994;14.052;2023-07-20T02:57:20;97913.00;;;16.19;100.00
65276;BME280;51875;49.994;14.052;2023-07-20T02:58:39;97910.22;;;16.06;100.00
65276;BME280;51875;49.994;14.052;2023-07-20T02:59:55;97913.28;;;16.14;100.00
65276;BME280;51875;49.994;14.052;2023-07-20T03:01:11;97913.69;;;16.22;100.00
65276;BME280;51875;49.994;14.052;2023-07-20T03:02:29;97914.97;;;16.15;100.00
65276;BME280;51875;49.994;14.052;2023-07-20T03:03:44;97913.25;;;16.00;100.00
65276;BME280;51875;49.994;14.052;2023-07-20T03:05:03;97912.72;;;16.09;100.00
65276;BME280;51875;49.994;14.052;2023-07-20T03:06:21;97914.50;;;16.08;100.00
65276;BME280;51875;49.994;14.052;2023-07-20T03:07:37;97913.91;;;16.03;100.00
65276;BME280;51875;49.994;14.052;2023-07-20T03:08:52;97910.81;;;16.11;100.00
65276;BME280;51875;49.994;14.052;2023-07-20T03:10:08;97911.13;;;15.90;100.00
65276;BME280;51875;49.994;14.052;2023-07-20T03:11:24;97903.81;;;15.95;100.00
65276;BME280;51875;49.994;14.052;2023-07-20T03:12:39;97917.41;;;16.04;100.00
65276;BME280;51875;49.994;14.052;2023-07-20T03:13:55;97913.31;;;15.98;100.00
65276;BME280;51875;49.994;14.052;2023-07-20T03:15:11;97913.69;;;15.92;100.00
65276;BME280;51875;49.994;14.052;2023-07-20T03:16:26;97915.75;;;15.87;100.00
65276;BME280;51875;49.994;14.052;2023-07-20T03:17:41;97918.81;;;15.79;100.00
65276;BME280;51875;49.994;14.052;2023-07-20T03:18:57;97913.34;;;15.82;100.00
65276;BME280;51875;49.994;14.052;2023-07-20T03:20:12;97918.44;;;15.85;100.00
65276;BME280;51875;49.994;14.052;2023-07-20T03:21:28;97917.97;;;15.78;100.00
65276;BME280;51875;49.994;14.052;2023-07-20T03:22:44;97932.94;;;15.78;100.00
65276;BME280;51875;49.994;14.052;2023-07-20T03:23:59;97932.50;;;15.86;100.00
65276;BME280;51875;49.994;14.052;2023-07-20T03:25:14;97927.31;;;15.84;100.00
65276;BME280;51875;49.994;14.052;2023-07-20T03:26:30;97926.44;;;15.84;100.00
65276;BME280;51875;49.994;14.052;2023-07-20T03:27:45;97934.47;;;15.82;100.00
65276;BME280;51875;49.994;14.052;2023-07-20T03:29:01;97926.81;;;15.77;100.00
65276;BME280;51875;49.994;14.052;2023-07-20T03:30:16;97932.34;;;15.73;100.00
65276;BME280;51875;49.994;14.052;2023-07-20T03:31:32;97929.19;;;15.82;100.00
65276;BME280;51875;49.994;14.052;2023-07-20T03:32:47;97928.22;;;15.99;100.00
65276;BME280;51875;49.994;14.052;2023-07-20T03:34:02;97929.81;;;16.18;100.00
65276;BME280;51875;49.994;14.052;2023-07-20T03:35:18;97934.22;;;16.17;100.00
65276;BME280;51875;49.994;14.052;2023-07-20T03:36:33;97927.34;;;16.15;100.00
65276;BME280;51875;49.994;14.052;2023-07-20T03:37:48;97927.63;;;16.10;100.00
65276;BME280;51875;49.994;14.052;2023-07-20T03:39:04;97935.69;;;15.92;100.00
65276;BME280;51875;49.994;14.052;2023-07-20T03:40:20;97931.53;;;15.72;100.00
65276;BME280;51875;49.994;14.052;2023-07-20T03:41:35;97928.31;;;15.51;100.00
65276;BME280;51875;49.994;14.052;2023-07-20T03:42:52;97926.78;;;15.47;100.00
65276;BME280;51875;49.994;14.052;2023-07-20T03:44:07;97925.00;;;15.47;100.00
65276;BME280;51875;49.994;14.052;2023-07-20T03:45:23;97929.06;;;15.53;100.00
65276;BME280;51875;49.994;14.052;2023-07-20T03:46:39;97934.19;;;15.56;100.00
65276;BME280;51875;49.994;14.052;2023-07-20T03:47:54;97929.66;;;15.58;100.00
65276;BME280;51875;49.994;14.052;2023-07-20T03:49:09;97935.06;;;15.71;100.00
65276;BME280;51875;49.994;14.052;2023-07-20T03:50:25;97934.66;;;15.79;100.00
65276;BME280;51875;49.994;14.052;2023-07-20T03:51:41;97941.72;;;15.94;100.00
65276;BME280;51875;49.994;14.052;2023-07-20T03:52:56;97938.91;;;15.98;100.00
65276;BME280;51875;49.994;14.052;2023-07-20T03:54:11;97930.53;;;16.05;100.00
65276;BME280;51875;49.994;14.052;2023-07-20T03:55:27;97937.56;;;16.05;100.00
65276;BME280;51875;49.994;14.052;2023-07-20T03:56:43;97933.63;;;15.98;100.00
65276;BME280;51875;49.994;14.052;2023-07-20T03:57:58;97934.94;;;16.05;100.00
65276;BME280;51875;49.994;14.052;2023-07-20T03:59:14;97940.63;;;16.13;100.00
65276;BME280;51875;49.994;14.052;2023-07-20T04:00:29;97942.06;;;16.19;100.00
65276;BME280;51875;49.994;14.052;2023-07-20T04:01:44;97937.53;;;16.21;100.00
65276;BME280;51875;49.994;14.052;2023-07-20T04:03:00;97942.13;;;16.17;100.00
65276;BME280;51875;49.994;14.052;2023-07-20T04:04:16;97944.56;;;16.06;100.00
65276;BME280;51875;49.994;14.052;2023-07-20T04:05:31;97944.16;;;15.98;100.00
65276;BME280;51875;49.994;14.052;2023-07-20T04:06:47;97945.38;;;15.92;100.00
65276;BME280;51875;49.994;14.052;2023-07-20T04:08:02;97949.94;;;15.88;100.00
65276;BME280;51875;49.994;14.052;2023-07-20T04:09:17;97943.91;;;15.86;100.00
65276;BME280;51875;49.994;14.052;2023-07-20T04:10:33;97952.78;;;15.85;100.00
65276;BME280;51875;49.994;14.052;2023-07-20T04:11:48;97944.94;;;15.84;100.00
65276;BME280;51875;49.994;14.052;2023-07-20T04:13:04;97953.91;;;15.81;100.00
65276;BME280;51875;49.994;14.052;2023-07-20T04:14:19;97944.34;;;15.94;100.00
65276;BME280;51875;49.994;14.052;2023-07-20T04:15:35;97941.75;;;16.09;100.00
65276;BME280;51875;49.994;14.052;2023-07-20T04:16:51;97953.38;;;15.90;100.00
65276;BME280;51875;49.994;14.052;2023-07-20T04:18:06;97951.69;;;15.89;100.00
65276;BME280;51875;49.994;14.052;2023-07-20T04:19:22;97946.63;;;15.85;100.00
65276;BME280;51875;49.994;14.052;2023-07-20T04:20:37;97953.78;;;15.82;100.00
65276;BME280;51875;49.994;14.052;2023-07-20T04:21:53;97949.25;;;15.85;100.00
65276;BME280;51875;49.994;14.052;2023-07-20T04:23:08;97951.53;;;15.92;100.00
65276;BME280;51875;49.994;14.052;2023-07-20T04:24:23;97951.56;;;16.07;100.00
65276;BME280;51875;49.994;14.052;2023-07-20T04:25:39;97961.72;;;15.99;100.00
65276;BME280;51875;49.994;14.052;2023-07-20T04:26:55;97955.75;;;15.95;100.00
65276;BME280;51875;49.994;14.052;2023-07-20T04:28:10;97950.66;;;15.76;100.00
65276;BME280;51875;49.994;14.052;2023-07-20T04:29:25;97950.75;;;15.74;100.00
65276;BME280;51875;49.994;14.052;2023-07-20T04:30:42;97952.44;;;15.75;100.00
65276;BME280;51875;49.994;14.052;2023-07-20T04:31:57;97946.91;;;15.80;100.00
65276;BME280;51875;49.994;14.052;2023-07-20T04:33:12;97949.53;;;15.96;100.00
65276;BME280;51875;49.994;14.052;2023-07-20T04:34:28;97944.00;;;16.01;100.00
65276;BME280;51875;49.994;14.052;2023-07-20T04:35:53;97952.47;;;16.06;100.00
65276;BME280;51875;49.994;14.052;2023-07-20T04:37:08;97947.81;;;16.11;100.00
65276;BME280;51875;49.994;14.052;2023-07-20T04:38:24;97951.56;;;16.07;100.00
65276;BME280;51875;49.994;14.052;2023-07-20T04:39:39;97956.50;;;16.28;100.00
65276;BME280;51875;49.994;14.052;2023-07-20T04:40:55;97950.97;;;16.32;100.00
65276;BME280;51875;49.994;14.052;2023-07-20T04:42:10;97950.47;;;16.26;100.00
65276;BME280;51875;49.994;14.052;2023-07-20T04:43:26;97949.94;;;16.35;100.00
65276;BME280;51875;49.994;14.052;2023-07-20T04:44:42;97946.91;;;16.41;100.00
65276;BME280;51875;49.994;14.052;2023-07-20T04:45:57;97943.34;;;16.42;100.00
65276;BME280;51875;49.994;14.052;2023-07-20T04:47:13;97949.97;;;16.49;100.00
65276;BME280;51875;49.994;14.052;2023-07-20T04:48:28;97942.19;;;16.46;100.00
65276;BME280;51875;49.994;14.052;2023-07-20T04:49:44;97955.06;;;16.52;100.00
65276;BME280;51875;49.994;14.052;2023-07-20T04:50:59;97953.72;;;16.45;100.00
65276;BME280;51875;49.994;14.052;2023-07-20T04:52:15;97956.13;;;16.34;100.00
65276;BME280;51875;49.994;14.052;2023-07-20T04:53:30;97954.56;;;16.46;100.00
65276;BME280;51875;49.994;14.052;2023-07-20T04:54:46;97950.13;;;16.46;100.00
65276;BME280;51875;49.994;14.052;2023-07-20T04:56:01;97961.16;;;16.53;100.00
65276;BME280;51875;49.994;14.052;2023-07-20T04:57:17;97956.84;;;16.66;100.00
65276;BME280;51875;49.994;14.052;2023-07-20T04:58:32;97959.31;;;16.70;100.00
65276;BME280;51875;49.994;14.052;2023-07-20T04:59:47;97960.06;;;16.86;100.00
65276;BME280;51875;49.994;14.052;2023-07-20T05:01:03;97963.94;;;16.95;100.00
65276;BME280;51875;49.994;14.052;2023-07-20T05:02:18;97964.13;;;16.92;100.00
65276;BME280;51875;49.994;14.052;2023-07-20T05:03:34;97956.69;;;16.99;100.00
65276;BME280;51875;49.994;14.052;2023-07-20T05:04:50;97958.53;;;16.97;100.00
65276;BME280;51875;49.994;14.052;2023-07-20T05:06:05;97951.88;;;16.91;100.00
65276;BME280;51875;49.994;14.052;2023-07-20T05:07:20;97950.75;;;17.10;100.00
65276;BME280;51875;49.994;14.052;2023-07-20T05:08:35;97959.59;;;17.23;100.00
65276;BME280;51875;49.994;14.052;2023-07-20T05:09:51;97961.69;;;17.32;100.00
65276;BME280;51875;49.994;14.052;2023-07-20T05:11:06;97955.97;;;17.39;100.00
65276;BME280;51875;49.994;14.052;2023-07-20T05:12:22;97964.31;;;17.32;100.00
65276;BME280;51875;49.994;14.052;2023-07-20T05:13:37;97960.50;;;17.51;100.00
65276;BME280;51875;49.994;14.052;2023-07-20T05:14:53;97957.63;;;17.54;100.00
65276;BME280;51875;49.994;14.052;2023-07-20T05:16:09;97958.84;;;17.63;100.00
65276;BME280;51875;49.994;14.052;2023-07-20T05:17:24;97958.34;;;17.71;100.00
65276;BME280;51875;49.994;14.052;2023-07-20T05:18:40;97959.44;;;17.81;100.00
65276;BME280;51875;49.994;14.052;2023-07-20T05:19:55;97961.78;;;17.86;100.00
65276;BME280;51875;49.994;14.052;2023-07-20T05:21:11;97955.56;;;18.00;100.00
65276;BME280;51875;49.994;14.052;2023-07-20T05:22:26;97956.28;;;17.89;100.00
65276;BME280;51875;49.994;14.052;2023-07-20T05:23:41;97958.44;;;17.97;100.00
65276;BME280;51875;49.994;14.052;2023-07-20T05:24:57;97953.50;;;18.05;100.00
65276;BME280;51875;49.994;14.052;2023-07-20T05:26:12;97959.84;;;18.02;100.00
65276;BME280;51875;49.994;14.052;2023-07-20T05:27:28;97966.16;;;18.00;100.00
65276;BME280;51875;49.994;14.052;2023-07-20T05:28:43;97954.09;;;18.23;100.00
65276;BME280;51875;49.994;14.052;2023-07-20T05:29:59;97960.75;;;18.29;100.00
65276;BME280;51875;49.994;14.052;2023-07-20T05:31:14;97963.13;;;18.46;100.00
65276;BME280;51875;49.994;14.052;2023-07-20T05:32:30;97966.19;;;18.53;100.00
65276;BME280;51875;49.994;14.052;2023-07-20T05:33:45;97964.94;;;18.59;100.00
65276;BME280;51875;49.994;14.052;2023-07-20T05:35:01;97961.75;;;18.67;98.28
65276;BME280;51875;49.994;14.052;2023-07-20T05:36:16;97961.09;;;18.89;94.83
65276;BME280;51875;49.994;14.052;2023-07-20T05:37:32;97956.44;;;18.80;98.09
65276;BME280;51875;49.994;14.052;2023-07-20T05:38:47;97961.97;;;19.02;96.44
65276;BME280;51875;49.994;14.052;2023-07-20T05:40:05;97957.78;;;18.98;95.71
65276;BME280;51875;49.994;14.052;2023-07-20T05:41:21;97952.00;;;18.80;96.94
65276;BME280;51875;49.994;14.052;2023-07-20T05:42:38;97958.59;;;19.00;95.26
65276;BME280;51875;49.994;14.052;2023-07-20T05:43:54;97961.31;;;19.12;95.90
65276;BME280;51875;49.994;14.052;2023-07-20T05:45:09;97963.22;;;18.84;93.54
65276;BME280;51875;49.994;14.052;2023-07-20T05:46:25;97963.94;;;19.12;92.79
65276;BME280;51875;49.994;14.052;2023-07-20T05:47:43;97961.47;;;19.34;91.72
65276;BME280;51875;49.994;14.052;2023-07-20T05:48:59;97966.13;;;19.44;90.57
65276;BME280;51875;49.994;14.052;2023-07-20T05:50:15;97968.31;;;19.50;89.37
65276;BME280;51875;49.994;14.052;2023-07-20T05:51:32;97957.78;;;19.61;86.52
65276;BME280;51875;49.994;14.052;2023-07-20T05:52:47;97962.59;;;19.81;86.20
65276;BME280;51875;49.994;14.052;2023-07-20T05:54:03;97963.41;;;19.81;84.81
65276;BME280;51875;49.994;14.052;2023-07-20T05:55:18;97964.91;;;19.85;84.69
65276;BME280;51875;49.994;14.052;2023-07-20T05:56:34;97967.78;;;19.82;84.95
65276;BME280;51875;49.994;14.052;2023-07-20T05:57:50;97964.53;;;20.03;81.29
65276;BME280;51875;49.994;14.052;2023-07-20T05:59:05;97960.41;;;19.99;81.86
65276;BME280;51875;49.994;14.052;2023-07-20T06:00:20;97972.50;;;20.03;80.31
65276;BME280;51875;49.994;14.052;2023-07-20T06:01:42;97968.06;;;20.15;78.28
65276;BME280;51875;49.994;14.052;2023-07-20T06:02:58;97964.72;;;20.24;77.64
65276;BME280;51875;49.994;14.052;2023-07-20T06:04:13;97973.13;;;20.07;77.70
65276;BME280;51875;49.994;14.052;2023-07-20T06:05:29;97974.00;;;20.18;76.39
65276;BME280;51875;49.994;14.052;2023-07-20T06:06:45;97970.53;;;20.29;76.68
65276;BME280;51875;49.994;14.052;2023-07-20T06:08:01;97968.25;;;20.00;78.72
65276;BME280;51875;49.994;14.052;2023-07-20T06:09:16;97965.53;;;20.13;77.26
65276;BME280;51875;49.994;14.052;2023-07-20T06:10:32;97967.81;;;20.07;76.19
65276;BME280;51875;49.994;14.052;2023-07-20T06:11:47;97968.97;;;20.02;74.99
65276;BME280;51875;49.994;14.052;2023-07-20T06:13:03;97973.47;;;20.02;76.42
65276;BME280;51875;49.994;14.052;2023-07-20T06:14:19;97976.50;;;20.09;74.89
65276;BME280;51875;49.994;14.052;2023-07-20T06:15:35;97971.81;;;20.12;76.88
65276;BME280;51875;49.994;14.052;2023-07-20T06:16:51;97962.09;;;20.00;76.40
65276;BME280;51875;49.994;14.052;2023-07-20T06:18:06;97963.09;;;20.10;73.53
65276;BME280;51875;49.994;14.052;2023-07-20T06:19:22;97960.28;;;20.36;71.51
65276;BME280;51875;49.994;14.052;2023-07-20T06:20:40;97958.25;;;20.51;71.21
65276;BME280;51875;49.994;14.052;2023-07-20T06:21:56;97965.97;;;20.43;70.75
65276;BME280;51875;49.994;14.052;2023-07-20T06:23:11;97965.31;;;20.75;67.92
65276;BME280;51875;49.994;14.052;2023-07-20T06:24:27;97954.66;;;20.64;71.87
65276;BME280;51875;49.994;14.052;2023-07-20T06:25:42;97962.75;;;20.62;65.76
65276;BME280;51875;49.994;14.052;2023-07-20T06:26:57;97955.56;;;20.98;63.10
65276;BME280;51875;49.994;14.052;2023-07-20T06:28:13;97965.59;;;20.83;67.29
65276;BME280;51875;49.994;14.052;2023-07-20T06:29:28;97962.28;;;20.80;72.52
65276;BME280;51875;49.994;14.052;2023-07-20T06:30:44;97961.25;;;20.94;61.99
65276;BME280;51875;49.994;14.052;2023-07-20T06:31:59;97963.31;;;21.13;59.17
65276;BME280;51875;49.994;14.052;2023-07-20T06:33:14;97966.16;;;21.33;61.29
65276;BME280;51875;49.994;14.052;2023-07-20T06:34:30;97963.06;;;20.82;61.30
65276;BME280;51875;49.994;14.052;2023-07-20T06:35:46;97961.59;;;21.00;62.14
65276;BME280;51875;49.994;14.052;2023-07-20T06:37:03;97963.66;;;20.97;63.04
65276;BME280;51875;49.994;14.052;2023-07-20T06:38:19;97966.69;;;21.26;60.65
65276;BME280;51875;49.994;14.052;2023-07-20T06:39:38;97960.63;;;21.24;62.83
65276;BME280;51875;49.994;14.052;2023-07-20T06:40:54;97965.59;;;21.06;60.89
65276;BME280;51875;49.994;14.052;2023-07-20T06:42:09;97973.66;;;21.50;60.30